| time (UTC) | temp C | wind direction | speed KPH | gust KPH | rain 1hr cm | rain 24hr cm | rain mn cm | humidity % | barometer mb |
| 20260906223040 | 28 | 264 | 0.0 | 1.6 | 0.00 | 0.00 | 0.00 | 38 | 1001.0 |
| 20260906221525 | 28 | 318 | 0.0 | 1.6 | 0.00 | 0.00 | 0.00 | 37 | 1001.1 |
| 20260906220020 | 28 | 274 | 0.0 | 0.0 | 0.00 | 0.00 | 0.00 | 37 | 1001.2 |
| 20260906214521 | 28 | 334 | 0.0 | 3.2 | 0.00 | 0.00 | 0.00 | 35 | 1001.3 |
| 20260906213017 | 29 | 316 | 0.0 | 3.2 | 0.00 | 0.00 | 0.00 | 35 | 1001.4 |
| 20260906211507 | 28 | 311 | 0.0 | 0.0 | 0.00 | 0.00 | 0.00 | 36 | 1001.6 |
| 20260906210001 | 27 | 321 | 0.0 | 1.6 | 0.00 | 0.00 | 0.00 | 39 | 1002.1 |
| 20260906204558 | 27 | 322 | 0.0 | 4.8 | 0.00 | 0.00 | 0.00 | 39 | 1002.2 |
| 20260906203101 | 27 | 349 | 0.0 | 3.2 | 0.00 | 0.00 | 0.00 | 37 | 1002.3 |
| 20260906201559 | 28 | 63 | 0.0 | 1.6 | 0.00 | 0.00 | 0.00 | 37 | 1002.5 |
| 20260906200049 | 29 | 63 | 0.0 | 1.6 | 0.00 | 0.00 | 0.00 | 34 | 1002.4 |
| 20260906194540 | 28 | 357 | 0.0 | 9.7 | 0.00 | 0.00 | 0.00 | 36 | 1002.4 |
| 20260906193058 | 29 | 359 | 0.0 | 6.4 | 0.00 | 0.00 | 0.00 | 38 | 1002.6 |
| 20260906191538 | 29 | 128 | 0.0 | 0.0 | 0.00 | 0.00 | 0.00 | 37 | 1002.9 |
| 20260906190029 | 27 | 68 | 0.0 | 8.0 | 0.00 | 0.00 | 0.00 | 37 | 1003.2 |
| 20260906184522 | 28 | 328 | 0.0 | 4.8 | 0.00 | 0.00 | 0.00 | 36 | 1003.4 |
| 20260906183021 | 27 | 4 | 0.0 | 3.2 | 0.00 | 0.00 | 0.00 | 36 | 1003.7 |
| 20260906181535 | 27 | 34 | 0.0 | 4.8 | 0.00 | 0.00 | 0.00 | 38 | 1004.0 |
| 20260906180019 | 26 | 53 | 1.6 | 8.0 | 0.00 | 0.00 | 0.00 | 37 | 1004.2 |
| 20260906174505 | 26 | 61 | 0.0 | 6.4 | 0.00 | 0.00 | 0.00 | 39 | 1004.4 |
| 20260906173100 | 25 | 1 | 1.6 | 6.4 | 0.00 | 0.00 | 0.00 | 42 | 1004.7 |
| 20260906171607 | 25 | 102 | 0.0 | 6.4 | 0.00 | 0.00 | 0.00 | 44 | 1004.8 |
| 20260906170106 | 25 | 79 | 3.2 | 6.4 | 0.00 | 0.00 | 0.00 | 44 | 1004.9 |
| 20260906164547 | 25 | 130 | 0.0 | 4.8 | 0.00 | 0.00 | 0.00 | 46 | 1005.0 |
| 20260906163044 | 23 | 285 | 0.0 | 3.2 | 0.00 | 0.00 | 0.00 | 47 | 1005.0 |
| 20260906161539 | 23 | 260 | 0.0 | 0.0 | 0.00 | 0.00 | 0.00 | 53 | 1005.0 |
| 20260906160035 | 23 | 143 | 0.0 | 3.2 | 0.00 | 0.00 | 0.00 | 54 | 1004.9 |
| 20260906154538 | 22 | 79 | 0.0 | 3.2 | 0.00 | 0.00 | 0.00 | 57 | 1004.9 |
| 20260906153024 | 22 | 56 | 0.0 | 4.8 | 0.00 | 0.00 | 0.00 | 62 | 1005.0 |
| 20260906151521 | 21 | 145 | 0.0 | 3.2 | 0.00 | 0.00 | 0.00 | 63 | 1005.1 |
| 20260906150016 | 21 | 6 | 0.0 | 0.0 | 0.00 | 0.00 | 0.00 | 67 | 1005.2 |
| 20260906144511 | 20 | 162 | 0.0 | 0.0 | 0.00 | 0.00 | 0.00 | 70 | 1005.4 |
| 20260906143006 | 20 | 131 | 0.0 | 1.6 | 0.00 | 0.00 | 0.00 | 70 | 1005.5 |
| 20260906141502 | 20 | 102 | 0.0 | 1.6 | 0.00 | 0.00 | 0.00 | 67 | 1005.5 |
| 20260906140057 | 20 | 88 | 0.0 | 1.6 | 0.00 | 0.00 | 0.00 | 66 | 1005.4 |
| 20260906134553 | 18 | 341 | 0.0 | 0.0 | 0.00 | 0.00 | 0.00 | 71 | 1005.5 |
| 20260906133104 | -17 | 0.0 | 0.0 | 0.00 | 0.00 | 0.00 | 1005.7 | ||
| 20260906131544 | -17 | 0.0 | 0.0 | 0.00 | 0.00 | 0.00 | 1005.7 | ||
| 20260906130044 | -17 | 0.0 | 0.0 | 0.00 | 0.00 | 0.00 | 1005.7 | ||
| 20260906124539 | -17 | 0.0 | 0.0 | 0.00 | 0.00 | 0.00 | 1005.8 | ||
| 20260906123032 | -17 | 0.0 | 0.0 | 0.00 | 0.00 | 0.00 | 1005.6 | ||
| 20260906121526 | -17 | 0.0 | 0.0 | 0.00 | 0.00 | 0.00 | 1005.8 | ||
| 20260906120022 | -17 | 0.0 | 0.0 | 0.00 | 0.00 | 0.00 | 1005.8 | ||
| 20260906114530 | -17 | 0.0 | 0.0 | 0.00 | 0.00 | 0.00 | 1006.2 | ||
| 20260906113013 | -17 | 0.0 | 0.0 | 0.00 | 0.00 | 0.00 | 1006.6 | ||
| 20260906111509 | -17 | 0.0 | 0.0 | 0.00 | 0.00 | 0.00 | 1006.7 | ||
| 20260906110004 | -17 | 0.0 | 0.0 | 0.00 | 0.00 | 0.00 | 1007.4 | ||
| 20260906104606 | -17 | 0.0 | 0.0 | 0.00 | 0.00 | 0.00 | 1007.6 | ||
| 20260906103058 | -17 | 0.0 | 0.0 | 0.00 | 0.00 | 0.00 | 1007.6 | ||
| 20260906101552 | -67 | 243 | 0.0 | 0.0 | 0.00 | 0.00 | 0.00 | 61 | 1007.7 |
| 20260906100047 | 17 | 240 | 0.0 | 0.0 | 0.00 | 0.00 | 0.00 | 60 | 1007.2 |
| 20260906094559 | 17 | 240 | 0.0 | 0.0 | 0.00 | 0.00 | 0.00 | 59 | 1007.1 |
| 20260906093057 | 18 | 240 | 0.0 | 0.0 | 0.00 | 0.00 | 0.00 | 56 | 1007.1 |
| 20260906091536 | 18 | 240 | 0.0 | 0.0 | 0.00 | 0.00 | 0.00 | 54 | 1007.0 |
| 20260906090034 | 18 | 64 | 0.0 | 0.0 | 0.00 | 0.00 | 0.00 | 52 | 1006.7 |
| 20260906084529 | 20 | 65 | 0.0 | 0.0 | 0.00 | 0.00 | 0.00 | 49 | 1006.6 |
| 20260906083042 | 21 | 220 | 0.0 | 3.2 | 0.00 | 0.00 | 0.00 | 45 | 1006.2 |
| 20260906081533 | 21 | 250 | 0.0 | 3.2 | 0.00 | 0.00 | 0.00 | 44 | 1006.2 |
| 20260906080035 | 21 | 245 | 0.0 | 3.2 | 0.00 | 0.00 | 0.00 | 46 | 1006.3 |
| 20260906074529 | 20 | 242 | 0.0 | 0.0 | 0.00 | 0.00 | 0.00 | 48 | 1006.4 |
| 20260906073026 | 21 | 242 | 0.0 | 0.0 | 0.00 | 0.00 | 0.00 | 46 | 1006.4 |
| 20260906071520 | 21 | 200 | 0.0 | 0.0 | 0.00 | 0.00 | 0.00 | 45 | 1006.3 |
| 20260906070016 | 22 | 248 | 0.0 | 0.0 | 0.00 | 0.00 | 0.00 | 42 | 1006.2 |
| 20260906064513 | 22 | 247 | 0.0 | 0.0 | 0.00 | 0.00 | 0.00 | 41 | 1006.2 |
| 20260906063010 | 23 | 246 | 0.0 | 0.0 | 0.00 | 0.00 | 0.00 | 38 | 1006.1 |
| 20260906061508 | 23 | 251 | 0.0 | 1.6 | 0.00 | 0.00 | 0.00 | 37 | 1006.2 |
| 20260906060004 | 23 | 264 | 0.0 | 3.2 | 0.00 | 0.00 | 0.00 | 38 | 1006.1 |
| 20260906054609 | 23 | 299 | 0.0 | 0.0 | 0.00 | 0.00 | 0.00 | 37 | 1006.4 |
| 20260906053055 | 24 | 281 | 0.0 | 0.0 | 0.00 | 0.00 | 0.00 | 36 | 1006.7 |
| 20260906051601 | 24 | 236 | 0.0 | 0.0 | 0.00 | 0.00 | 0.00 | 36 | 1007.0 |
| 20260906050051 | 24 | 171 | 0.0 | 1.6 | 0.00 | 0.00 | 0.00 | 35 | 1006.4 |
| 20260906044542 | 25 | 240 | 0.0 | 0.0 | 0.00 | 0.00 | 0.00 | 34 | 1006.1 |
| 20260906043037 | 26 | 238 | 0.0 | 6.4 | 0.00 | 0.00 | 0.00 | 32 | 1005.9 |
| 20260906041533 | 26 | 321 | 0.0 | 9.7 | 0.00 | 0.00 | 0.00 | 31 | 1005.7 |
| 20260906040032 | 26 | 309 | 1.6 | 9.7 | 0.00 | 0.00 | 0.00 | 30 | 1005.9 |
| 20260906034526 | 26 | 9 | 0.0 | 4.8 | 0.00 | 0.00 | 0.00 | 30 | 1005.6 |
| 20260906033027 | 26 | 323 | 3.2 | 9.7 | 0.00 | 0.00 | 0.00 | 31 | 1005.0 |
| 20260906031514 | 26 | 226 | 4.8 | 17.7 | 0.00 | 0.00 | 0.00 | 30 | 1004.9 |
| 20260906030011 | 26 | 321 | 4.8 | 12.9 | 0.00 | 0.00 | 0.00 | 32 | 1004.7 |
| 20260906024519 | 26 | 233 | 6.4 | 14.5 | 0.00 | 0.00 | 0.00 | 31 | 1004.3 |
| 20260906023001 | 26 | 277 | 8.0 | 14.5 | 0.00 | 0.00 | 0.00 | 30 | 1004.3 |
| 20260906021556 | 27 | 214 | 3.2 | 11.3 | 0.00 | 0.00 | 0.00 | 28 | 1004.1 |
| 20260906020053 | 27 | 264 | 1.6 | 12.9 | 0.00 | 0.00 | 0.00 | 28 | 1003.8 |
| 20260906014622 | 27 | 304 | 6.4 | 16.1 | 0.00 | 0.00 | 0.00 | 27 | 1004.2 |
| 20260906013048 | 27 | 224 | 6.4 | 12.9 | 0.00 | 0.00 | 0.00 | 28 | 1004.1 |
| 20260906011541 | 27 | 240 | 3.2 | 11.3 | 0.00 | 0.00 | 0.00 | 28 | 1003.9 |
| 20260906010035 | 28 | 274 | 1.6 | 8.0 | 0.00 | 0.00 | 0.00 | 27 | 1003.9 |
| 20260906004530 | 28 | 227 | 3.2 | 8.0 | 0.00 | 0.00 | 0.00 | 26 | 1003.9 |
| 20260906003026 | 28 | 253 | 0.0 | 12.9 | 0.00 | 0.00 | 0.00 | 26 | 1003.9 |
| 20260906001523 | 28 | 294 | 1.6 | 14.5 | 0.00 | 0.00 | 0.00 | 26 | 1004.1 |
| 20260906000017 | 30 | 259 | 0.0 | 6.4 | 0.00 | 0.00 | 0.00 | 24 | 1003.8 |
| 20260905234511 | 30 | 287 | 3.2 | 11.3 | 0.00 | 0.00 | 0.00 | 23 | 1003.8 |
| 20260905233008 | 30 | 250 | 0.0 | 1.6 | 0.00 | 0.00 | 0.00 | 24 | 1003.7 |
| 20260905231503 | 30 | 341 | 0.0 | 0.0 | 0.00 | 0.00 | 0.00 | 26 | 1003.7 |
| 20260905230109 | 30 | 347 | 0.0 | 1.6 | 0.00 | 0.00 | 0.00 | 24 | 1003.4 |
| 20260905224607 | 31 | 331 | 0.0 | 0.0 | 0.00 | 0.00 | 0.00 | 23 | 1003.4 |